createdAt,value
2017-01-22T00:00:07.741Z,71.57
2017-01-22T00:01:08.286Z,70.99
2017-01-22T00:02:08.025Z,70.79
2017-01-22T00:03:07.799Z,70.73
2017-01-22T00:04:08.766Z,70.76
2017-01-22T00:05:08.310Z,71.23
2017-01-22T00:06:07.846Z,70.48
2017-01-22T00:07:08.465Z,71.27
2017-01-22T00:08:08.067Z,70.34
2017-01-22T00:09:07.636Z,70.71
2017-01-22T00:10:08.235Z,70.96
2017-01-22T00:11:09.148Z,71.34
2017-01-22T00:12:07.703Z,71.27
2017-01-22T00:13:08.242Z,70.22
2017-01-22T00:14:07.786Z,70.85
2017-01-22T00:15:08.368Z,71.33
2017-01-22T00:16:07.939Z,71.40
2017-01-22T00:17:07.731Z,69.78
2017-01-22T00:18:07.555Z,69.99
2017-01-22T00:19:08.300Z,69.02
2017-01-22T00:20:07.799Z,69.44
2017-01-22T00:21:08.304Z,69.74
2017-01-22T00:22:08.075Z,69.21
2017-01-22T00:23:07.685Z,69.70
2017-01-22T00:24:08.337Z,70.07
2017-01-22T00:25:08.217Z,70.06
2017-01-22T00:26:07.741Z,69.77
2017-01-22T00:27:08.329Z,69.27
2017-01-22T00:28:07.877Z,69.65
2017-01-22T00:29:08.357Z,69.87
2017-01-22T00:30:07.935Z,69.91
2017-01-22T00:31:07.425Z,69.26
2017-01-22T00:32:08.100Z,69.02
2017-01-22T00:33:07.864Z,69.35
2017-01-22T00:34:08.416Z,69.03
2017-01-22T00:35:08.009Z,69.38
2017-01-22T00:36:07.871Z,70.20
2017-01-22T00:37:08.549Z,70.75
2017-01-22T00:38:08.109Z,70.02
2017-01-22T00:39:10.757Z,70.90
2017-01-22T00:40:08.449Z,71.25
2017-01-22T00:41:08.007Z,71.21
2017-01-22T00:42:07.529Z,70.80
2017-01-22T00:43:08.089Z,70.14
2017-01-22T00:44:07.612Z,70.43
2017-01-22T00:45:08.194Z,70.13
2017-01-22T00:46:08.135Z,69.30
2017-01-22T00:47:07.658Z,69.34
2017-01-22T00:48:07.786Z,69.69
2017-01-22T00:49:08.265Z,69.50
2017-01-22T00:50:07.768Z,69.77
2017-01-22T00:51:08.291Z,69.90
2017-01-22T00:52:08.301Z,70.12
2017-01-22T00:53:07.880Z,70.04
2017-01-22T00:54:08.440Z,69.99
2017-01-22T00:56:07.544Z,69.36
2017-01-22T00:56:11.152Z,70.53
2017-01-22T00:57:38.331Z,70.14
2017-01-22T00:58:07.846Z,70.53
2017-01-22T00:59:08.456Z,69.83
2017-01-22T01:00:08.031Z,70.59
2017-01-22T01:01:07.885Z,70.03
2017-01-22T01:02:08.349Z,68.65
2017-01-22T01:03:07.649Z,69.43
2017-01-22T01:04:08.389Z,69.89
2017-01-22T01:05:07.879Z,69.42
2017-01-22T01:06:08.447Z,69.28
2017-01-22T01:07:08.128Z,68.76
2017-01-22T01:08:08.013Z,68.63
2017-01-22T01:09:07.800Z,68.91
2017-01-22T01:10:08.317Z,70.60
2017-01-22T01:11:07.999Z,69.95
2017-01-22T01:12:07.516Z,68.86
2017-01-22T01:13:08.134Z,68.41
2017-01-22T01:14:08.018Z,68.65
2017-01-22T01:15:07.624Z,68.01
2017-01-22T01:16:08.322Z,68.39
2017-01-22T01:17:08.279Z,69.14
2017-01-22T01:18:07.904Z,69.05
2017-01-22T01:19:08.381Z,69.12
2017-01-22T01:20:08.206Z,68.28
2017-01-22T01:21:07.419Z,68.61
2017-01-22T01:22:07.738Z,69.36
2017-01-22T01:23:08.249Z,68.90
2017-01-22T01:24:07.842Z,68.10
2017-01-22T01:25:08.580Z,68.18
2017-01-22T01:26:08.068Z,68.75
2017-01-22T01:27:07.785Z,68.35
2017-01-22T01:28:08.630Z,68.55
2017-01-22T01:29:08.279Z,69.14
2017-01-22T01:30:08.340Z,69.23
2017-01-22T01:31:08.083Z,68.76
2017-01-22T01:32:07.747Z,69.31
2017-01-22T01:33:08.415Z,69.21
2017-01-22T01:34:07.884Z,69.45
2017-01-22T01:35:07.989Z,69.39
2017-01-22T01:36:08.223Z,69.62
2017-01-22T01:37:08.127Z,69.44
2017-01-22T01:38:08.148Z,68.34
2017-01-22T01:39:07.607Z,68.97
2017-01-22T01:40:07.927Z,67.88
2017-01-22T01:41:08.340Z,69.21
2017-01-22T01:42:07.606Z,69.50
2017-01-22T01:43:08.031Z,68.01
2017-01-22T01:44:07.577Z,68.15
2017-01-22T01:45:08.131Z,68.36
2017-01-22T01:46:07.664Z,68.13
2017-01-22T01:47:08.331Z,68.05
2017-01-22T01:48:08.085Z,69.07
2017-01-22T01:49:07.548Z,69.52
2017-01-22T01:50:08.170Z,68.54
2017-01-22T01:51:07.713Z,67.71
2017-01-22T01:52:08.222Z,68.25
2017-01-22T01:53:07.738Z,68.00
2017-01-22T01:54:08.314Z,68.59
2017-01-22T01:55:08.330Z,68.52
2017-01-22T01:56:08.408Z,68.30
2017-01-22T01:57:08.380Z,69.11
2017-01-22T01:58:07.822Z,69.52
2017-01-22T01:59:08.291Z,68.96
2017-01-22T02:00:07.618Z,68.33
2017-01-22T02:01:08.287Z,68.93
2017-01-22T02:02:07.790Z,68.71
2017-01-22T02:03:08.390Z,68.90
2017-01-22T02:04:08.205Z,68.01
2017-01-22T02:05:07.716Z,67.98
2017-01-22T02:06:08.270Z,68.76
2017-01-22T02:07:07.656Z,68.68
2017-01-22T02:08:08.219Z,68.46
2017-01-22T02:09:07.783Z,67.53
2017-01-22T02:10:08.395Z,67.36
2017-01-22T02:11:08.004Z,68.20
2017-01-22T02:12:07.514Z,69.20
2017-01-22T02:13:07.897Z,69.32
2017-01-22T02:14:08.464Z,69.51
2017-01-22T02:15:07.986Z,68.61
2017-01-22T02:16:07.440Z,68.59
2017-01-22T02:17:08.088Z,67.97
2017-01-22T02:18:07.890Z,68.82
2017-01-22T02:19:08.142Z,68.13
2017-01-22T02:20:08.332Z,67.32
2017-01-22T02:21:08.088Z,67.38
2017-01-22T02:22:07.641Z,67.39
2017-01-22T02:23:08.182Z,68.13
2017-01-22T02:24:08.498Z,68.61
2017-01-22T02:25:08.057Z,68.46
2017-01-22T02:26:07.580Z,68.44
2017-01-22T02:27:08.127Z,68.50
2017-01-22T02:28:07.969Z,68.83
2017-01-22T02:29:07.763Z,67.96
2017-01-22T02:30:08.410Z,68.37
2017-01-22T02:31:08.137Z,67.84
2017-01-22T02:32:07.657Z,67.14
2017-01-22T02:33:08.057Z,67.63
2017-01-22T02:34:07.840Z,67.51
2017-01-22T02:35:08.355Z,67.70
2017-01-22T02:36:07.932Z,67.90
2017-01-22T02:37:07.497Z,67.78
2017-01-22T02:38:08.270Z,67.85
2017-01-22T02:39:07.936Z,67.77
2017-01-22T02:40:07.841Z,67.72
2017-01-22T02:41:08.436Z,68.84
2017-01-22T02:42:08.174Z,67.26
2017-01-22T02:43:07.737Z,67.16
2017-01-22T02:44:08.638Z,68.25
2017-01-22T02:45:08.289Z,68.69
2017-01-22T02:46:07.989Z,68.36
2017-01-22T02:47:07.508Z,67.47
2017-01-22T02:48:08.045Z,67.84
2017-01-22T02:49:08.050Z,66.79
2017-01-22T02:50:08.341Z,67.56
2017-01-22T02:51:07.880Z,68.70
2017-01-22T02:52:07.953Z,68.42
2017-01-22T02:53:07.400Z,67.91
2017-01-22T02:54:08.016Z,66.74
2017-01-22T02:55:07.862Z,68.44
2017-01-22T02:56:08.514Z,69.15
2017-01-22T02:57:08.108Z,68.88
2017-01-22T02:58:07.917Z,68.52
2017-01-22T02:59:08.451Z,67.87
2017-01-22T03:00:07.997Z,66.99
2017-01-22T03:01:07.597Z,67.16
2017-01-22T03:02:08.179Z,67.65
2017-01-22T03:03:07.955Z,67.51
2017-01-22T03:04:07.390Z,67.96
2017-01-22T03:05:07.957Z,67.78
2017-01-22T03:06:07.505Z,67.34
2017-01-22T03:07:08.030Z,67.74
2017-01-22T03:08:07.531Z,67.60
2017-01-22T03:09:08.088Z,67.58
2017-01-22T03:10:07.839Z,66.57
2017-01-22T03:11:08.357Z,66.32
2017-01-22T03:12:08.057Z,66.59
2017-01-22T03:13:08.620Z,67.04
2017-01-22T03:14:08.171Z,67.65
2017-01-22T03:15:07.796Z,67.88
2017-01-22T03:16:08.389Z,68.29
2017-01-22T03:17:08.068Z,68.18
2017-01-22T03:18:07.715Z,67.29
2017-01-22T03:19:08.197Z,66.67
2017-01-22T03:20:07.802Z,65.47
2017-01-22T03:21:08.307Z,65.28
2017-01-22T03:22:07.870Z,65.94
2017-01-22T03:23:08.430Z,65.93
2017-01-22T03:24:08.104Z,66.48
2017-01-22T03:25:07.909Z,66.20
2017-01-22T03:26:08.510Z,66.13
2017-01-22T03:27:07.978Z,66.44
2017-01-22T03:28:07.529Z,66.36
2017-01-22T03:29:08.098Z,66.86
2017-01-22T03:30:07.700Z,66.33
2017-01-22T03:31:08.273Z,65.93
2017-01-22T03:32:07.956Z,66.64
2017-01-22T03:33:07.540Z,65.80
2017-01-22T03:34:08.182Z,65.71
2017-01-22T03:35:07.791Z,65.64
2017-01-22T03:36:08.370Z,65.80
2017-01-22T03:37:07.879Z,66.27
2017-01-22T03:38:08.452Z,66.09
2017-01-22T03:39:08.221Z,66.15
2017-01-22T03:40:07.799Z,66.67
2017-01-22T03:41:08.435Z,66.66
2017-01-22T03:42:08.216Z,66.81
2017-01-22T03:43:07.810Z,66.86
2017-01-22T03:44:08.337Z,66.32
2017-01-22T03:45:07.860Z,66.44
2017-01-22T03:46:08.495Z,66.29
2017-01-22T03:47:08.359Z,66.03
2017-01-22T03:48:07.860Z,66.00
2017-01-22T03:49:08.520Z,65.79
2017-01-22T03:50:08.127Z,65.46
2017-01-22T03:51:07.671Z,66.59
2017-01-22T03:52:08.234Z,66.93
2017-01-22T03:53:08.131Z,66.24
2017-01-22T03:54:07.831Z,66.53
2017-01-22T03:55:08.477Z,67.26
2017-01-22T03:56:08.029Z,67.47
2017-01-22T03:57:07.536Z,67.57
2017-01-22T03:58:08.147Z,67.73
2017-01-22T03:59:07.594Z,66.92
2017-01-22T04:00:08.249Z,67.38
2017-01-22T04:01:07.782Z,67.79
2017-01-22T04:02:07.461Z,66.11
2017-01-22T04:03:08.055Z,66.85
2017-01-22T04:04:07.618Z,66.60
2017-01-22T04:05:08.498Z,67.39
2017-01-22T04:06:08.271Z,66.95
2017-01-22T04:07:07.781Z,67.04
2017-01-22T04:08:08.368Z,67.60
2017-01-22T04:09:07.904Z,68.09
2017-01-22T04:10:08.501Z,67.77
2017-01-22T04:11:08.090Z,67.63
2017-01-22T04:12:07.786Z,67.49
2017-01-22T04:13:08.369Z,67.29
2017-01-22T04:14:07.859Z,68.13
2017-01-22T04:15:08.689Z,67.56
2017-01-22T04:16:08.533Z,67.63
2017-01-22T04:17:08.430Z,68.30
2017-01-22T04:18:08.202Z,68.36
2017-01-22T04:19:07.768Z,67.77
2017-01-22T04:20:08.412Z,67.66
2017-01-22T04:21:08.031Z,67.61
2017-01-22T04:22:07.590Z,67.43
2017-01-22T04:23:08.101Z,67.84
2017-01-22T04:24:08.240Z,67.54
2017-01-22T04:25:07.825Z,68.05
2017-01-22T04:26:08.502Z,68.03
2017-01-22T04:27:08.092Z,68.83
2017-01-22T04:28:07.693Z,69.87
2017-01-22T04:29:08.183Z,70.49
2017-01-22T04:30:07.810Z,70.97
2017-01-22T04:31:08.411Z,70.73
2017-01-22T04:32:07.905Z,71.08
2017-01-22T04:33:08.550Z,71.64
2017-01-22T04:34:08.138Z,72.28
2017-01-22T04:35:07.877Z,71.97
2017-01-22T04:36:07.872Z,71.35
2017-01-22T04:37:08.426Z,71.51
2017-01-22T04:38:08.162Z,72.08
2017-01-22T04:39:08.020Z,71.38
2017-01-22T04:40:07.526Z,71.15
2017-01-22T04:41:08.082Z,71.25
2017-01-22T04:42:07.568Z,72.10
2017-01-22T04:43:08.241Z,71.85
2017-01-22T04:44:07.732Z,72.15
2017-01-22T04:45:08.282Z,71.94
2017-01-22T04:46:07.805Z,73.17
2017-01-22T04:47:08.333Z,73.00
2017-01-22T04:48:07.809Z,73.86
2017-01-22T04:49:07.800Z,73.25
2017-01-22T04:50:08.352Z,73.61
2017-01-22T04:51:07.835Z,74.75
2017-01-22T04:52:08.400Z,74.75
2017-01-22T04:53:07.861Z,74.65
2017-01-22T04:54:08.483Z,73.82
2017-01-22T04:55:08.070Z,73.57
2017-01-22T04:56:07.612Z,74.15
2017-01-22T04:57:08.219Z,75.22
2017-01-22T04:59:08.063Z,74.10
2017-01-22T05:00:07.700Z,74.35
2017-01-22T05:01:08.333Z,73.44
2017-01-22T05:02:08.079Z,72.65
2017-01-22T05:03:07.662Z,74.43
2017-01-22T05:04:08.343Z,74.07
2017-01-22T05:05:07.835Z,73.36
2017-01-22T05:06:08.478Z,72.90
2017-01-22T05:07:07.985Z,74.35
2017-01-22T05:08:07.463Z,74.81
2017-01-22T05:09:08.252Z,74.07
2017-01-22T05:10:08.167Z,73.24
2017-01-22T05:11:07.703Z,73.25
2017-01-22T05:12:08.232Z,72.05
2017-01-22T05:13:08.214Z,71.82
2017-01-22T05:14:07.762Z,71.64
2017-01-22T05:15:08.312Z,72.52
2017-01-22T05:16:07.900Z,71.97
2017-01-22T05:17:08.627Z,73.06
2017-01-22T05:18:08.189Z,73.04
2017-01-22T05:19:07.646Z,73.12
2017-01-22T05:20:08.150Z,72.47
2017-01-22T05:21:08.052Z,72.17
2017-01-22T05:22:07.627Z,71.53
2017-01-22T05:23:08.122Z,72.83
2017-01-22T05:24:07.610Z,72.68
2017-01-22T05:25:11.030Z,72.91
2017-01-22T05:26:07.651Z,72.52
2017-01-22T05:27:08.347Z,73.23
2017-01-22T05:28:08.070Z,73.11
2017-01-22T05:29:07.664Z,72.82
2017-01-22T05:30:08.167Z,73.21
2017-01-22T05:31:07.676Z,73.26
2017-01-22T05:32:08.189Z,72.94
2017-01-22T05:33:08.508Z,73.84
2017-01-22T05:34:08.139Z,73.38
2017-01-22T05:35:07.786Z,72.23
2017-01-22T05:36:08.366Z,72.35
2017-01-22T05:37:07.908Z,71.36
2017-01-22T05:38:08.444Z,71.04
2017-01-22T05:39:08.044Z,71.94
2017-01-22T05:40:07.572Z,71.85
2017-01-22T05:41:08.388Z,71.50
2017-01-22T05:42:08.064Z,71.29
2017-01-22T05:43:07.727Z,70.80
2017-01-22T05:44:08.286Z,70.32
2017-01-22T05:45:07.887Z,70.27
2017-01-22T05:46:08.409Z,71.80
2017-01-22T05:47:09.559Z,72.02
2017-01-22T05:48:08.040Z,72.51
2017-01-22T05:49:07.616Z,71.43
2017-01-22T05:50:08.231Z,70.00
2017-01-22T05:51:08.081Z,69.64
2017-01-22T05:52:07.763Z,69.91
2017-01-22T05:53:08.400Z,70.62
2017-01-22T05:54:08.219Z,70.03
2017-01-22T05:55:07.978Z,70.45
2017-01-22T05:56:07.743Z,71.40
2017-01-22T05:57:08.273Z,69.71
2017-01-22T05:58:07.797Z,70.69
2017-01-22T05:59:08.329Z,71.60
2017-01-22T06:00:07.856Z,73.04
2017-01-22T06:01:08.387Z,72.70
2017-01-22T06:02:07.909Z,72.77
2017-01-22T06:03:08.735Z,71.98
2017-01-22T06:04:08.292Z,71.98
2017-01-22T06:05:08.135Z,70.87
2017-01-22T06:06:07.659Z,71.16
2017-01-22T06:07:08.259Z,71.74
2017-01-22T06:08:07.840Z,72.03
2017-01-22T06:09:08.413Z,72.51
2017-01-22T06:10:07.918Z,71.80
2017-01-22T06:11:08.468Z,71.84
2017-01-22T06:12:08.067Z,72.01
2017-01-22T06:13:08.144Z,71.95
2017-01-22T06:14:07.624Z,71.90
2017-01-22T06:15:08.183Z,71.92
2017-01-22T06:16:08.003Z,71.39
2017-01-22T06:17:07.897Z,71.58
2017-01-22T06:18:08.448Z,71.65
2017-01-22T06:19:07.978Z,71.33
2017-01-22T06:20:07.673Z,71.50
2017-01-22T06:21:08.217Z,72.89
2017-01-22T06:22:07.731Z,73.03
2017-01-22T06:23:08.300Z,71.21
2017-01-22T06:24:07.769Z,71.95
2017-01-22T06:25:08.405Z,71.31
2017-01-22T06:26:07.932Z,70.77
2017-01-22T06:27:07.555Z,70.31
2017-01-22T06:28:08.429Z,71.01
2017-01-22T06:29:07.857Z,71.29
2017-01-22T06:30:07.922Z,70.79
2017-01-22T06:31:09.340Z,70.69
2017-01-22T06:32:07.811Z,70.24
2017-01-22T06:33:08.410Z,70.71
2017-01-22T06:34:07.959Z,71.57
2017-01-22T06:35:07.658Z,72.19
2017-01-22T06:36:08.219Z,72.45
2017-01-22T06:37:07.811Z,72.72
2017-01-22T06:38:08.724Z,72.31
2017-01-22T06:39:08.281Z,72.54
2017-01-22T06:40:07.804Z,73.72
2017-01-22T06:41:08.362Z,73.21
2017-01-22T06:42:07.978Z,72.33
2017-01-22T06:43:07.958Z,71.28
2017-01-22T06:44:07.449Z,71.00
2017-01-22T06:45:08.031Z,70.83
2017-01-22T06:46:07.488Z,71.53
2017-01-22T06:47:08.066Z,70.80
2017-01-22T06:48:07.799Z,70.85
2017-01-22T06:49:08.672Z,72.11
2017-01-22T06:50:08.188Z,72.51
2017-01-22T06:51:07.707Z,72.37
2017-01-22T06:52:08.231Z,71.42
2017-01-22T06:53:07.867Z,70.99
2017-01-22T06:54:08.436Z,70.95
2017-01-22T06:55:08.305Z,70.88
2017-01-22T06:56:07.936Z,69.99
2017-01-22T06:57:07.620Z,68.70
2017-01-22T06:58:07.508Z,69.38
2017-01-22T06:59:08.056Z,68.67
2017-01-22T07:00:07.656Z,69.25
2017-01-22T07:01:08.175Z,68.99
2017-01-22T07:02:07.691Z,68.88
2017-01-22T07:03:08.299Z,68.60
2017-01-22T07:04:07.901Z,69.33
2017-01-22T07:05:08.519Z,69.80
2017-01-22T07:06:08.048Z,70.41
2017-01-22T07:07:07.812Z,70.28
2017-01-22T07:08:08.286Z,68.91
2017-01-22T07:09:08.139Z,69.36
2017-01-22T07:10:07.706Z,69.40
2017-01-22T07:11:08.515Z,69.34
2017-01-22T07:12:08.068Z,68.59
2017-01-22T07:13:07.848Z,68.03
2017-01-22T07:14:08.387Z,69.08
2017-01-22T07:15:07.918Z,69.53
2017-01-22T07:16:08.487Z,68.98
2017-01-22T07:17:08.141Z,69.14
2017-01-22T07:18:08.014Z,69.43
2017-01-22T07:19:07.494Z,69.03
2017-01-22T07:20:08.088Z,69.38
2017-01-22T07:21:07.558Z,69.57
2017-01-22T07:22:08.048Z,69.47
2017-01-22T07:23:08.019Z,68.77
2017-01-22T07:24:07.519Z,68.60
2017-01-22T07:25:07.957Z,69.94
2017-01-22T07:26:07.755Z,70.68
2017-01-22T07:27:08.431Z,70.82
2017-01-22T07:28:07.952Z,69.89
2017-01-22T07:29:07.556Z,70.22
2017-01-22T07:30:18.023Z,69.94
2017-01-22T07:31:07.605Z,70.39
2017-01-22T07:32:08.205Z,70.15
2017-01-22T07:33:07.945Z,70.51
2017-01-22T07:34:07.611Z,69.23
2017-01-22T07:35:07.658Z,68.54
2017-01-22T07:36:08.161Z,67.72
2017-01-22T07:37:08.826Z,67.59
2017-01-22T07:38:07.456Z,67.42
2017-01-22T07:39:08.010Z,68.08
2017-01-22T07:40:07.421Z,67.76
2017-01-22T07:41:08.021Z,67.81
2017-01-22T07:42:07.644Z,68.06
2017-01-22T07:43:08.223Z,67.73
2017-01-22T07:44:07.786Z,67.81
2017-01-22T07:45:08.369Z,68.11
2017-01-22T07:46:09.002Z,67.93
2017-01-22T07:47:07.624Z,67.92
2017-01-22T07:48:08.206Z,67.61
2017-01-22T07:49:07.725Z,67.38
2017-01-22T07:50:08.321Z,67.78
2017-01-22T07:51:08.132Z,67.57
2017-01-22T07:52:07.904Z,67.44
2017-01-22T07:53:08.449Z,67.16
2017-01-22T07:54:08.303Z,66.12
2017-01-22T07:55:07.833Z,67.30
2017-01-22T07:56:08.390Z,67.18
2017-01-22T07:57:07.921Z,67.24
2017-01-22T07:58:08.963Z,68.50
2017-01-22T07:59:07.431Z,68.84
2017-01-22T08:00:07.937Z,68.28
2017-01-22T08:01:08.571Z,67.98
2017-01-22T08:02:08.563Z,68.04
2017-01-22T08:03:08.195Z,67.25
2017-01-22T08:04:07.782Z,67.41
2017-01-22T08:05:08.408Z,68.46
2017-01-22T08:06:08.014Z,68.78
2017-01-22T08:07:07.523Z,68.82
2017-01-22T08:08:08.111Z,68.28
2017-01-22T08:09:07.719Z,68.38
2017-01-22T08:10:08.342Z,68.74
2017-01-22T08:11:08.964Z,68.40
2017-01-22T08:12:07.945Z,68.70
2017-01-22T08:13:07.498Z,68.83
2017-01-22T08:14:08.213Z,69.44
2017-01-22T08:15:07.713Z,69.76
2017-01-22T08:16:08.226Z,69.29
2017-01-22T08:17:07.903Z,69.80
2017-01-22T08:18:08.507Z,69.03
2017-01-22T08:19:08.050Z,69.74
2017-01-22T08:20:07.518Z,69.09
2017-01-22T08:21:08.080Z,68.93
2017-01-22T08:22:07.602Z,68.19
2017-01-22T08:23:08.326Z,68.34
2017-01-22T08:24:07.922Z,68.37
2017-01-22T08:25:08.513Z,69.12
2017-01-22T08:26:08.090Z,69.29
2017-01-22T08:27:07.550Z,68.43
2017-01-22T08:28:08.581Z,68.75
2017-01-22T08:29:08.184Z,68.56
2017-01-22T08:30:07.815Z,68.34
2017-01-22T08:31:08.440Z,68.47
2017-01-22T08:32:08.050Z,68.60
2017-01-22T08:33:07.887Z,68.48
2017-01-22T08:34:09.372Z,68.21
2017-01-22T08:35:07.618Z,68.58
2017-01-22T08:36:08.155Z,68.54
2017-01-22T08:37:07.779Z,69.70
2017-01-22T08:38:08.415Z,69.51
2017-01-22T08:39:08.981Z,69.36
2017-01-22T08:40:07.420Z,69.44
2017-01-22T08:41:34.041Z,68.81
2017-01-22T08:42:07.585Z,68.73
2017-01-22T08:43:08.157Z,70.32
2017-01-22T08:44:07.803Z,69.87
2017-01-22T08:45:08.633Z,70.32
2017-01-22T08:46:08.255Z,70.68
2017-01-22T08:47:07.804Z,70.78
2017-01-22T08:48:08.372Z,69.25
2017-01-22T08:49:07.938Z,68.75
2017-01-22T08:50:17.420Z,68.92
2017-01-22T08:51:07.962Z,68.86
2017-01-22T08:52:07.543Z,68.76
2017-01-22T08:53:08.063Z,68.98
2017-01-22T08:54:07.828Z,70.16
2017-01-22T08:55:33.976Z,71.08
2017-01-22T08:56:09.141Z,70.11
2017-01-22T08:57:07.680Z,70.42
2017-01-22T08:58:09.616Z,71.03
2017-01-22T08:59:08.180Z,70.37
2017-01-22T09:00:07.980Z,70.03
2017-01-22T09:01:07.502Z,70.24
2017-01-22T09:02:08.005Z,70.40
2017-01-22T09:03:07.448Z,70.59
2017-01-22T09:04:07.947Z,70.11
2017-01-22T09:05:07.735Z,69.97
2017-01-22T09:06:08.244Z,69.23
2017-01-22T09:07:08.138Z,69.98
2017-01-22T09:08:09.376Z,69.08
2017-01-22T09:09:08.175Z,69.35
2017-01-22T09:10:07.741Z,69.02
2017-01-22T09:11:08.606Z,69.29
2017-01-22T09:12:08.145Z,68.26
2017-01-22T09:13:07.644Z,69.92
2017-01-22T09:14:08.199Z,69.89
2017-01-22T09:15:07.802Z,68.40
2017-01-22T09:16:08.385Z,68.38
2017-01-22T09:17:08.277Z,68.68
2017-01-22T09:18:07.888Z,68.71
2017-01-22T09:19:08.419Z,69.40
2017-01-22T09:20:08.148Z,68.98
2017-01-22T09:21:08.579Z,69.43
2017-01-22T09:22:08.206Z,68.84
2017-01-22T09:23:07.702Z,69.10
2017-01-22T09:24:09.309Z,68.44
2017-01-22T09:25:07.837Z,69.13
2017-01-22T09:26:08.421Z,69.63
2017-01-22T09:27:08.074Z,69.91
2017-01-22T09:28:07.867Z,69.86
2017-01-22T09:29:08.460Z,69.44
2017-01-22T09:30:08.271Z,69.44
2017-01-22T09:31:07.829Z,69.55
2017-01-22T09:32:08.433Z,68.66
2017-01-22T09:33:07.900Z,67.56
2017-01-22T09:34:08.510Z,68.22
2017-01-22T09:35:08.111Z,69.41
2017-01-22T09:36:07.653Z,68.96
2017-01-22T09:37:08.241Z,68.47
2017-01-22T09:38:07.757Z,68.33
2017-01-22T09:39:08.269Z,69.17
2017-01-22T09:40:07.906Z,69.28
2017-01-22T09:41:08.462Z,68.01
2017-01-22T09:42:07.983Z,67.20
2017-01-22T09:43:07.763Z,68.31
2017-01-22T09:44:08.300Z,69.41
2017-01-22T09:45:07.898Z,69.42
2017-01-22T09:47:07.683Z,68.52
2017-01-22T09:48:08.173Z,71.20
2017-01-22T09:49:07.716Z,71.25
2017-01-22T09:50:08.390Z,70.09
2017-01-22T09:51:08.096Z,69.33
2017-01-22T09:52:07.969Z,68.76
2017-01-22T09:53:07.522Z,68.81
2017-01-22T09:54:08.140Z,68.49
2017-01-22T09:55:07.680Z,67.33
2017-01-22T09:56:08.271Z,68.54
2017-01-22T09:57:07.792Z,69.26
2017-01-22T09:58:08.363Z,69.22
2017-01-22T09:59:07.863Z,68.85
2017-01-22T10:00:08.452Z,68.13
2017-01-22T10:01:08.105Z,68.50
2017-01-22T10:02:07.803Z,68.79
2017-01-22T10:03:08.382Z,68.80
2017-01-22T10:04:07.877Z,68.25
2017-01-22T10:05:08.535Z,68.22
2017-01-22T10:06:08.356Z,68.50
2017-01-22T10:07:08.809Z,68.53
2017-01-22T10:08:08.392Z,68.99
2017-01-22T10:09:07.935Z,68.73
2017-01-22T10:10:08.564Z,68.45
2017-01-22T10:11:08.406Z,69.53
2017-01-22T10:12:08.059Z,69.01
2017-01-22T10:13:07.925Z,69.12
2017-01-22T10:14:08.471Z,68.61
2017-01-22T10:15:08.034Z,68.79
2017-01-22T10:16:08.489Z,68.44
2017-01-22T10:17:08.149Z,69.33
2017-01-22T10:18:07.820Z,68.73
2017-01-22T10:19:08.390Z,68.68
2017-01-22T10:20:08.866Z,68.49
2017-01-22T10:21:08.343Z,68.32
2017-01-22T10:22:08.337Z,67.70
2017-01-22T10:23:07.984Z,67.83
2017-01-22T10:24:07.614Z,68.33
2017-01-22T10:25:08.216Z,68.15
2017-01-22T10:26:07.978Z,67.28
2017-01-22T10:27:07.456Z,66.97
2017-01-22T10:28:08.098Z,66.53
2017-01-22T10:29:07.818Z,66.44
2017-01-22T10:30:08.444Z,66.42
2017-01-22T10:31:08.036Z,66.92
2017-01-22T10:32:07.606Z,66.85
2017-01-22T10:33:08.393Z,66.88
2017-01-22T10:34:09.390Z,66.71
2017-01-22T10:35:07.928Z,66.98
2017-01-22T10:36:08.491Z,66.97
2017-01-22T10:37:08.099Z,67.22
2017-01-22T10:38:07.613Z,67.53
2017-01-22T10:39:08.116Z,67.02
2017-01-22T10:40:07.669Z,67.22
2017-01-22T10:41:08.198Z,67.48
2017-01-22T10:42:07.775Z,67.45
2017-01-22T10:43:08.601Z,67.99
2017-01-22T10:44:09.048Z,68.75
2017-01-22T10:45:07.822Z,68.48
2017-01-22T10:46:08.399Z,67.39
2017-01-22T10:47:07.917Z,67.27
2017-01-22T10:48:08.864Z,66.84
2017-01-22T10:49:08.790Z,65.75
2017-01-22T10:50:08.360Z,65.90
2017-01-22T10:51:07.912Z,65.81
2017-01-22T10:52:08.494Z,66.03
2017-01-22T10:53:08.239Z,65.62
2017-01-22T10:54:07.880Z,66.87
2017-01-22T10:55:08.448Z,67.07
2017-01-22T10:56:08.004Z,67.68
2017-01-22T10:57:07.547Z,67.54
2017-01-22T10:58:08.183Z,67.15
2017-01-22T10:59:07.903Z,67.27
2017-01-22T11:00:08.543Z,66.88
2017-01-22T11:01:08.159Z,66.18
2017-01-22T11:02:07.826Z,66.31
2017-01-22T11:03:08.429Z,66.56
2017-01-22T11:04:08.259Z,66.69
2017-01-22T11:05:07.742Z,66.28
2017-01-22T11:06:08.345Z,66.58
2017-01-22T11:07:07.963Z,66.84
2017-01-22T11:08:07.528Z,66.41
2017-01-22T11:09:08.001Z,67.10
2017-01-22T11:10:07.518Z,67.45
2017-01-22T11:11:08.023Z,66.90
2017-01-22T11:12:07.598Z,66.87
2017-01-22T11:13:08.093Z,66.48
2017-01-22T11:14:07.905Z,65.85
2017-01-22T11:15:08.472Z,65.77
2017-01-22T11:17:08.373Z,65.74
2017-01-22T11:18:07.882Z,65.71
2017-01-22T11:19:08.497Z,65.82
2017-01-22T11:20:08.089Z,66.18
2017-01-22T11:21:08.640Z,65.92
2017-01-22T11:22:08.148Z,66.05
2017-01-22T11:23:07.624Z,65.70
2017-01-22T11:24:08.210Z,65.48
2017-01-22T11:25:07.929Z,65.73
2017-01-22T11:26:09.413Z,65.91
2017-01-22T11:27:08.197Z,66.06
2017-01-22T11:28:07.919Z,65.37
2017-01-22T11:29:08.437Z,65.04
2017-01-22T11:30:08.010Z,64.52
2017-01-22T11:32:07.747Z,64.34
2017-01-22T11:33:08.018Z,64.44
2017-01-22T11:34:07.541Z,64.66
2017-01-22T11:35:08.366Z,64.88
2017-01-22T11:36:07.947Z,64.15
2017-01-22T11:37:07.499Z,64.61
2017-01-22T11:38:08.323Z,64.06
2017-01-22T11:39:08.248Z,63.76
2017-01-22T11:40:08.139Z,63.93
2017-01-22T11:41:07.625Z,64.05
2017-01-22T11:42:08.186Z,64.00
2017-01-22T11:43:33.266Z,64.11
2017-01-22T11:44:07.787Z,63.85
2017-01-22T11:45:08.286Z,63.94
2017-01-22T11:46:08.211Z,63.47
2017-01-22T11:47:07.793Z,63.61
2017-01-22T11:48:08.610Z,63.47
2017-01-22T11:49:08.188Z,63.61
2017-01-22T11:50:07.776Z,63.93
2017-01-22T11:51:07.644Z,63.15
2017-01-22T11:52:08.150Z,63.79
2017-01-22T11:53:07.702Z,63.46
2017-01-22T11:54:08.248Z,63.34
2017-01-22T11:55:07.768Z,63.22
2017-01-22T11:56:08.271Z,63.14
2017-01-22T11:57:07.686Z,63.19
2017-01-22T11:58:08.289Z,62.88
2017-01-22T11:59:07.836Z,63.28
2017-01-22T12:00:08.547Z,63.15
2017-01-22T12:01:08.302Z,63.42
2017-01-22T12:02:07.970Z,63.27
2017-01-22T12:03:07.703Z,62.82
2017-01-22T12:04:08.248Z,62.14
2017-01-22T12:05:07.827Z,63.71
2017-01-22T12:06:08.393Z,63.89
2017-01-22T12:07:08.766Z,63.58
2017-01-22T12:08:08.409Z,63.53
2017-01-22T12:09:08.050Z,63.51
2017-01-22T12:10:07.578Z,63.30
2017-01-22T12:11:08.167Z,63.13
2017-01-22T12:12:07.712Z,63.40
2017-01-22T12:13:08.342Z,63.36
2017-01-22T12:14:08.258Z,64.43
2017-01-22T12:15:07.759Z,63.55
2017-01-22T12:16:08.395Z,63.84
2017-01-22T12:17:08.144Z,63.98
2017-01-22T12:18:07.651Z,64.28
2017-01-22T12:19:08.180Z,64.22
2017-01-22T12:20:07.778Z,64.39
2017-01-22T12:21:08.512Z,64.67
2017-01-22T12:22:08.089Z,64.53
2017-01-22T12:23:07.693Z,64.28
2017-01-22T12:24:08.480Z,65.35
2017-01-22T12:25:07.986Z,64.97
2017-01-22T12:26:07.643Z,65.32
2017-01-22T12:27:08.182Z,64.92
2017-01-22T12:28:07.741Z,65.18
2017-01-22T12:29:08.332Z,65.42
2017-01-22T12:30:07.890Z,65.43
2017-01-22T12:31:08.468Z,64.90
2017-01-22T12:32:07.962Z,65.07
2017-01-22T12:33:07.736Z,65.08
2017-01-22T12:34:08.333Z,64.88
2017-01-22T12:35:07.887Z,65.09
2017-01-22T12:36:08.546Z,64.76
2017-01-22T12:37:08.352Z,64.79
2017-01-22T12:38:07.883Z,64.55
2017-01-22T12:39:08.315Z,64.86
2017-01-22T12:40:08.114Z,64.58
2017-01-22T12:41:07.881Z,64.47
2017-01-22T12:42:08.479Z,64.24
2017-01-22T12:43:08.190Z,64.38
2017-01-22T12:44:07.802Z,64.71
2017-01-22T12:45:08.393Z,64.79
2017-01-22T12:46:08.094Z,64.85
2017-01-22T12:47:07.609Z,64.84
2017-01-22T12:48:08.116Z,64.40
2017-01-22T12:49:07.612Z,64.21
2017-01-22T12:50:09.109Z,64.18
2017-01-22T12:51:08.187Z,63.84
2017-01-22T12:52:07.918Z,63.75
2017-01-22T12:53:08.430Z,63.66
2017-01-22T12:54:07.955Z,63.70
2017-01-22T12:55:07.539Z,63.54
2017-01-22T12:56:08.406Z,63.96